Time;durP1;ratioP1;P1;durP2;ratioP2;P2;SDS_P1;SDS_P2;PMS_P1;PMS_P2;Temp;Humidity;BMP_temperature;BMP_pressure;BME280_temperature;BME280_humidity;BME280_pressure;Samples;Min_cycle;Max_cycle;Signal;HPM_P1;HPM_P2
2024/01/24 07:32:08;;;;;;;7.40;3.70;;;23.40;54.00;;;;;;5049732;28;20461;-83
2024/01/24 07:34:38;;;;;;;19.73;9.73;;;23.40;54.20;;;;;;5035937;28;20449;-87
2024/01/24 07:37:05;;;;;;;8.13;4.33;;;23.40;54.40;;;;;;5035846;28;20493;-87
2024/01/24 07:39:32;;;;;;;9.27;3.80;;;23.40;54.30;;;;;;5036338;28;20444;-87
2024/01/24 07:41:58;;;;;;;17.43;4.80;;;23.40;54.40;;;;;;5035812;28;20450;-87
2024/01/24 07:44:26;;;;;;;8.23;3.70;;;23.50;54.40;;;;;;5039672;28;20531;-87
2024/01/24 07:46:52;;;;;;;8.23;3.70;;;23.50;54.30;;;;;;5056125;28;20447;-89
2024/01/24 07:49:21;;;;;;;8.50;3.90;;;23.60;54.50;;;;;;5051224;28;20445;-90
2024/01/24 07:51:47;;;;;;;6.50;4.33;;;23.40;54.40;;;;;;5017949;28;20525;-91
2024/01/24 07:54:17;;;;;;;7.63;5.00;;;23.40;54.40;;;;;;5035719;28;20486;-91
2024/01/24 07:56:44;;;;;;;11.53;4.13;;;23.50;54.40;;;;;;5035903;28;20458;-90
2024/01/24 07:59:12;;;;;;;7.50;4.50;;;23.50;54.40;;;;;;5034824;28;20453;-91
2024/01/24 08:01:38;;;;;;;8.47;5.00;;;23.50;54.50;;;;;;5021770;28;20454;-89
2024/01/24 08:04:05;;;;;;;7.63;4.90;;;23.50;54.50;;;;;;5037925;28;20453;-87
2024/01/24 08:06:33;;;;;;;5.87;4.00;;;23.60;54.60;;;;;;5043828;28;20454;-90
2024/01/24 08:09:00;;;;;;;10.63;5.10;;;23.50;54.50;;;;;;5035303;28;20449;-86
2024/01/24 08:11:29;;;;;;;6.90;4.80;;;23.50;54.40;;;;;;5035698;28;20441;-87
2024/01/24 08:13:55;;;;;;;8.67;5.40;;;23.50;54.60;;;;;;5035304;28;21018;-87
2024/01/24 08:16:22;;;;;;;7.97;5.03;;;23.50;54.60;;;;;;5035263;28;20448;-89
2024/01/24 08:18:49;;;;;;;9.77;5.67;;;23.50;54.60;;;;;;5035099;28;20780;-89
2024/01/24 08:21:17;;;;;;;7.77;4.40;;;23.50;54.50;;;;;;5034791;28;20541;-84
2024/01/24 08:23:45;;;;;;;19.70;7.70;;;23.60;54.70;;;;;;5034866;28;20467;-84
2024/01/24 08:26:12;;;;;;;16.20;8.93;;;23.50;54.90;;;;;;5034447;28;20469;-84
2024/01/24 08:28:39;;;;;;;20.40;7.20;;;23.50;55.00;;;;;;5035278;28;20442;-84
2024/01/24 08:31:06;;;;;;;10.57;5.70;;;23.40;55.10;;;;;;5034826;28;20968;-86
2024/01/24 08:33:33;;;;;;;15.00;7.43;;;23.40;55.40;;;;;;5050220;28;20489;-84
2024/01/24 08:36:00;;;;;;;12.00;5.27;;;23.40;55.60;;;;;;5054559;28;20441;-88
2024/01/24 08:38:27;;;;;;;12.20;5.60;;;23.50;55.40;;;;;;5055176;28;20533;-83
2024/01/24 08:40:55;;;;;;;13.03;6.47;;;23.50;55.20;;;;;;5054299;28;20437;-83
2024/01/24 08:43:24;;;;;;;16.07;8.03;;;23.50;55.40;;;;;;5054372;28;20438;-83
2024/01/24 08:45:51;;;;;;;17.17;9.17;;;23.50;55.50;;;;;;5054272;28;20441;-83
2024/01/24 08:48:18;;;;;;;19.87;9.20;;;23.40;55.50;;;;;;5054555;28;20437;-83
2024/01/24 08:50:45;;;;;;;12.30;6.13;;;23.40;55.50;;;;;;5054400;28;20448;-83
2024/01/24 08:53:12;;;;;;;13.40;7.03;;;23.40;55.40;;;;;;5054200;28;20489;-83
2024/01/24 08:55:39;;;;;;;13.37;6.50;;;23.30;55.40;;;;;;5054260;28;20430;-83
2024/01/24 08:58:08;;;;;;;17.57;7.40;;;23.30;55.50;;;;;;5054252;28;20433;-82
2024/01/24 09:00:35;;;;;;;19.03;7.07;;;23.30;55.50;;;;;;5054217;28;20429;-83
2024/01/24 09:03:01;;;;;;;11.20;6.47;;;23.30;55.70;;;;;;5054354;28;20433;-83
2024/01/24 09:05:28;;;;;;;11.47;4.37;;;23.30;55.70;;;;;;5054174;28;20437;-90
2024/01/24 09:07:55;;;;;;;9.30;5.17;;;23.30;55.60;;;;;;5037082;28;20435;-88
2024/01/24 09:10:22;;;;;;;13.97;6.00;;;23.40;55.40;;;;;;5054587;28;20444;-90
2024/01/24 09:12:49;;;;;;;8.90;4.40;;;23.40;55.30;;;;;;5054191;28;20481;-90
2024/01/24 09:15:17;;;;;;;9.90;4.77;;;23.40;55.20;;;;;;5036754;28;20495;-88
2024/01/24 09:17:44;;;;;;;15.87;4.80;;;23.50;55.20;;;;;;5054301;28;20437;-90
2024/01/24 09:20:11;;;;;;;8.33;4.67;;;23.50;55.20;;;;;;5054262;28;20589;-87
2024/01/24 09:22:38;;;;;;;11.60;4.83;;;23.50;55.00;;;;;;5054351;28;20437;-90
2024/01/24 09:25:05;;;;;;;11.47;4.70;;;23.50;55.10;;;;;;5054041;28;20488;-90
2024/01/24 09:27:32;;;;;;;10.50;5.43;;;23.40;55.00;;;;;;5052378;28;20462;-90
2024/01/24 09:29:59;;;;;;;10.00;4.10;;;23.40;55.10;;;;;;5054032;28;20444;-87
2024/01/24 09:32:28;;;;;;;9.33;5.47;;;23.40;55.00;;;;;;5054028;28;20465;-86
2024/01/24 09:34:55;;;;;;;10.97;4.50;;;23.40;55.00;;;;;;5055737;28;20547;-89
2024/01/24 09:37:22;;;;;;;6.50;4.40;;;23.40;55.10;;;;;;5037734;28;20448;-86
2024/01/24 09:39:49;;;;;;;7.67;5.23;;;23.50;55.10;;;;;;5056835;28;20465;-89
2024/01/24 09:42:20;;;;;;;11.70;5.70;;;23.50;55.20;;;;;;5053333;28;20446;-88
2024/01/24 09:44:49;;;;;;;10.10;5.07;;;23.50;55.20;;;;;;5074949;28;20429;-88
2024/01/24 09:47:17;;;;;;;15.53;6.50;;;23.50;55.10;;;;;;5075277;28;20457;-89
2024/01/24 09:49:46;;;;;;;7.00;4.40;;;23.50;55.10;;;;;;5077815;28;20449;-92
2024/01/24 09:52:15;;;;;;;8.80;5.13;;;23.50;55.00;;;;;;5060733;28;20510;-87
2024/01/24 09:54:43;;;;;;;14.20;4.83;;;23.50;55.10;;;;;;5074278;28;20480;-89
2024/01/24 09:57:12;;;;;;;8.10;4.60;;;23.50;55.10;;;;;;5074393;28;20469;-89
2024/01/24 09:59:39;;;;;;;13.80;5.87;;;23.50;55.10;;;;;;5074400;28;20488;-89
2024/01/24 10:02:07;;;;;;;10.93;4.93;;;23.50;55.10;;;;;;5073840;28;20448;-89
2024/01/24 10:04:37;;;;;;;11.53;4.90;;;23.50;55.10;;;;;;5073638;28;20450;-88
2024/01/24 10:07:07;;;;;;;10.27;3.70;;;23.50;55.10;;;;;;5073563;28;20796;-87
2024/01/24 10:09:34;;;;;;;10.87;4.30;;;23.60;55.10;;;;;;5073018;28;20444;-88
2024/01/24 10:12:01;;;;;;;7.90;4.10;;;23.60;55.10;;;;;;5073751;28;20437;-88
2024/01/24 10:14:28;;;;;;;8.73;4.40;;;23.60;55.10;;;;;;5065478;28;20487;-87
2024/01/24 10:16:56;;;;;;;8.33;4.03;;;23.50;55.00;;;;;;5053866;28;20437;-91
2024/01/24 10:19:24;;;;;;;10.33;4.37;;;23.60;55.10;;;;;;5053954;28;20441;-91
2024/01/24 10:21:51;;;;;;;8.00;3.70;;;23.60;55.10;;;;;;5047981;28;20449;-91
2024/01/24 10:24:20;;;;;;;6.13;3.37;;;23.60;55.10;;;;;;5054096;28;20468;-92
2024/01/24 10:26:47;;;;;;;7.37;4.07;;;23.60;55.00;;;;;;5053848;28;20467;-92
2024/01/24 10:29:13;;;;;;;8.40;3.83;;;23.60;55.00;;;;;;5053407;28;20446;-90
2024/01/24 10:31:42;;;;;;;5.23;3.00;;;23.60;55.10;;;;;;5053172;28;20448;-91
2024/01/24 10:34:09;;;;;;;6.70;3.17;;;23.60;55.00;;;;;;5053125;28;20493;-87
2024/01/24 10:36:38;;;;;;;9.87;3.87;;;23.60;55.00;;;;;;5053460;28;20452;-89
2024/01/24 10:39:10;;;;;;;8.43;4.07;;;23.60;55.10;;;;;;5053133;28;20430;-87
2024/01/24 10:41:41;;;;;;;12.10;4.03;;;23.60;55.00;;;;;;5053255;28;20451;-86
2024/01/24 10:44:09;;;;;;;13.27;3.80;;;23.60;55.00;;;;;;5041677;28;20489;-86
2024/01/24 10:46:38;;;;;;;11.10;3.93;;;23.60;54.90;;;;;;5033044;28;20545;-85
2024/01/24 10:49:05;;;;;;;8.60;3.60;;;23.60;55.00;;;;;;5033262;28;20478;-85
2024/01/24 10:51:33;;;;;;;8.90;3.20;;;23.60;54.90;;;;;;5033017;28;20442;-85
2024/01/24 10:54:05;;;;;;;7.10;3.17;;;23.60;54.90;;;;;;5033369;28;21012;-88
2024/01/24 10:56:39;;;;;;;7.20;3.37;;;23.60;54.90;;;;;;5015555;28;20462;-88
2024/01/24 14:22:41;;;;;;;12.73;3.53;;;23.90;54.90;;;;;;5061336;28;20485;-84
2024/01/24 14:25:09;;;;;;;8.37;2.57;;;24.00;54.90;;;;;;5054101;28;20425;-84
2024/01/24 14:27:37;;;;;;;8.30;2.30;;;24.00;53.90;;;;;;5043716;28;20852;-84
2024/01/24 14:30:04;;;;;;;5.87;3.33;;;24.00;53.80;;;;;;5032966;28;20445;-84
2024/01/24 14:32:31;;;;;;;14.07;3.47;;;24.00;53.70;;;;;;5033010;28;20439;-85
2024/01/24 14:34:58;;;;;;;12.43;2.73;;;24.00;53.70;;;;;;5036502;28;20580;-84
2024/01/24 14:37:25;;;;;;;7.57;3.40;;;23.90;53.60;;;;;;5036897;28;20434;-84
2024/01/24 14:39:53;;;;;;;7.43;2.90;;;23.90;53.60;;;;;;5036952;28;20788;-85
2024/01/24 14:42:20;;;;;;;9.60;2.83;;;23.90;53.60;;;;;;5036775;28;20438;-84
2024/01/24 14:44:47;;;;;;;11.27;3.10;;;23.80;53.60;;;;;;5036446;28;20781;-84
2024/01/24 14:47:14;;;;;;;6.60;2.27;;;23.80;53.60;;;;;;5036326;28;20438;-84
2024/01/24 14:49:41;;;;;;;11.80;3.00;;;23.80;53.50;;;;;;5036450;28;20778;-84
2024/01/24 14:52:08;;;;;;;14.53;3.00;;;23.80;53.50;;;;;;5036320;28;20549;-84
2024/01/24 14:54:35;;;;;;;8.23;2.87;;;23.80;53.60;;;;;;5036007;28;20482;-85
2024/01/24 14:57:03;;;;;;;5.03;2.20;;;23.80;53.60;;;;;;5036240;28;20454;-85
2024/01/24 14:59:30;;;;;;;8.30;2.47;;;23.80;53.60;;;;;;5035732;28;20434;-84
2024/01/24 15:01:57;;;;;;;5.83;2.20;;;23.80;53.50;;;;;;5036530;28;20431;-85
2024/01/24 15:04:24;;;;;;;6.30;3.20;;;23.80;53.50;;;;;;5036659;28;20442;-84
2024/01/24 15:06:52;;;;;;;6.83;2.47;;;23.80;53.50;;;;;;5036442;28;20524;-84
2024/01/24 15:09:19;;;;;;;5.70;2.07;;;23.70;53.40;;;;;;5036332;28;20442;-84
2024/01/24 15:11:45;;;;;;;5.90;2.27;;;23.80;53.40;;;;;;5036538;28;20568;-84
2024/01/24 15:14:14;;;;;;;9.57;2.27;;;23.70;53.30;;;;;;5036139;28;20490;-84
2024/01/24 15:16:41;;;;;;;3.93;2.10;;;23.70;53.40;;;;;;5036052;28;20430;-84
2024/01/24 15:19:08;;;;;;;6.60;2.90;;;23.70;53.40;;;;;;5036258;28;20435;-84
2024/01/24 15:21:35;;;;;;;6.43;2.33;;;23.70;53.40;;;;;;5038254;28;20434;-84
2024/01/24 15:24:05;;;;;;;3.77;1.87;;;23.70;53.30;;;;;;5056183;28;20533;-83
2024/01/24 15:26:32;;;;;;;7.53;2.60;;;23.70;53.30;;;;;;5056057;28;20461;-84
2024/01/24 15:28:59;;;;;;;6.60;2.30;;;23.70;53.30;;;;;;5056094;28;20529;-84
2024/01/24 15:31:27;;;;;;;5.73;2.10;;;23.70;53.30;;;;;;5055976;28;20437;-84
2024/01/24 15:33:54;;;;;;;3.37;1.93;;;23.70;53.30;;;;;;5055555;28;20487;-84
2024/01/24 15:36:21;;;;;;;10.00;2.97;;;23.70;53.30;;;;;;5056230;28;20444;-86
2024/01/24 15:38:50;;;;;;;12.83;3.17;;;23.70;53.50;;;;;;5055992;28;20878;-86
2024/01/24 15:41:17;;;;;;;18.53;3.90;;;23.70;53.70;;;;;;5055708;28;20494;-85
2024/01/24 15:43:44;;;;;;;18.20;3.53;;;23.70;53.10;;;;;;5055750;28;20924;-89
2024/01/24 15:46:11;;;;;;;17.57;3.80;;;23.60;53.10;;;;;;5055056;28;20437;-88
2024/01/24 15:48:40;;;;;;;15.77;3.80;;;23.60;53.60;;;;;;5056043;28;20437;-90
2024/01/24 15:51:07;;;;;;;13.00;3.10;;;23.60;53.90;;;;;;5057304;28;20963;-90
2024/01/24 15:53:34;;;;;;;16.60;3.67;;;23.70;54.00;;;;;;5074775;28;20432;-88
2024/01/24 15:56:01;;;;;;;14.67;3.00;;;23.70;53.90;;;;;;5080218;28;20449;-89
2024/01/24 15:58:28;;;;;;;12.07;3.97;;;23.80;54.00;;;;;;5080293;28;20468;-90
2024/01/24 16:00:55;;;;;;;9.53;3.13;;;23.80;54.00;;;;;;5053586;28;20476;-91
2024/01/24 16:03:25;;;;;;;12.23;2.70;;;23.90;54.00;;;;;;5056162;28;20866;-91
2024/01/24 16:05:53;;;;;;;8.80;2.87;;;23.90;54.00;;;;;;5038045;28;20441;-90
2024/01/24 16:08:20;;;;;;;7.17;2.47;;;23.90;54.00;;;;;;5055952;28;20449;-90
2024/01/24 16:10:48;;;;;;;9.17;2.60;;;24.00;54.00;;;;;;5056229;28;20449;-91
2024/01/24 16:13:15;;;;;;;6.33;2.50;;;24.00;54.00;;;;;;5062013;28;20493;-89
2024/01/24 16:15:41;;;;;;;6.07;3.00;;;24.00;54.00;;;;;;5079837;28;20488;-91
2024/01/24 16:18:08;;;;;;;8.43;3.00;;;24.00;54.00;;;;;;5078529;28;20446;-90
2024/01/24 16:20:35;;;;;;;8.10;2.40;;;24.00;54.00;;;;;;5055347;28;20932;-91
2024/01/24 16:23:04;;;;;;;10.73;2.67;;;24.00;54.60;;;;;;5069570;28;20575;-88
2024/01/24 16:25:31;;;;;;;7.63;2.40;;;24.00;54.00;;;;;;5075133;28;20495;-89
2024/01/24 16:27:58;;;;;;;7.77;3.10;;;24.00;54.10;;;;;;5075345;28;20459;-87
2024/01/24 16:30:27;;;;;;;7.30;2.40;;;24.00;54.10;;;;;;5075444;28;20455;-88
2024/01/24 16:32:54;;;;;;;10.00;2.70;;;23.90;54.00;;;;;;5075094;28;20447;-89
2024/01/24 16:35:22;;;;;;;10.70;3.23;;;24.00;54.10;;;;;;5074905;28;20498;-87
2024/01/24 16:37:48;;;;;;;6.30;2.90;;;24.00;54.10;;;;;;5074759;28;20445;-87
2024/01/24 16:40:16;;;;;;;7.70;2.97;;;24.00;54.00;;;;;;5074822;28;20437;-88
2024/01/24 16:42:43;;;;;;;4.67;2.57;;;23.90;54.00;;;;;;5075348;28;20445;-88
2024/01/24 16:45:11;;;;;;;9.60;3.23;;;23.90;54.00;;;;;;5074868;28;20445;-89
2024/01/24 16:47:38;;;;;;;7.10;2.70;;;23.90;54.10;;;;;;5074337;28;20946;-88
2024/01/24 16:50:06;;;;;;;8.50;2.00;;;23.90;54.00;;;;;;5074300;28;20444;-88
2024/01/24 16:52:33;;;;;;;10.27;3.07;;;24.00;54.00;;;;;;5074530;28;20439;-88
2024/01/24 16:55:00;;;;;;;10.10;3.30;;;24.00;54.00;;;;;;5074189;28;20487;-88
2024/01/24 16:57:28;;;;;;;6.20;2.90;;;24.00;54.00;;;;;;5074010;28;20531;-88
2024/01/24 16:59:57;;;;;;;6.00;2.40;;;24.00;53.90;;;;;;5074093;28;20452;-89
2024/01/24 17:02:23;;;;;;;4.17;2.00;;;24.00;53.90;;;;;;5074087;28;20455;-88
2024/01/24 17:04:50;;;;;;;6.67;2.33;;;24.00;54.50;;;;;;5074177;28;20432;-88
2024/01/24 17:07:17;;;;;;;8.07;3.10;;;24.00;53.90;;;;;;5073951;28;20432;-89
2024/01/24 17:09:45;;;;;;;10.60;2.93;;;24.10;53.90;;;;;;5074081;28;20440;-89
2024/01/24 17:12:16;;;;;;;4.33;2.10;;;24.00;53.90;;;;;;5073834;28;20476;-89
2024/01/24 17:14:45;;;;;;;12.43;3.10;;;24.00;53.90;;;;;;5073698;28;20476;-88
2024/01/24 17:17:12;;;;;;;7.13;2.70;;;24.00;53.90;;;;;;5073706;28;20494;-88
2024/01/24 17:19:39;;;;;;;13.40;2.53;;;23.90;53.90;;;;;;5073857;28;20438;-89
2024/01/24 17:22:05;;;;;;;5.47;2.40;;;23.90;53.80;;;;;;5073332;28;20476;-88
2024/01/24 17:24:32;;;;;;;3.97;2.10;;;23.90;54.50;;;;;;5074030;28;20432;-89
2024/01/24 17:26:59;;;;;;;4.10;2.00;;;24.00;54.00;;;;;;5073414;28;20452;-89
2024/01/24 17:29:26;;;;;;;5.77;2.20;;;23.90;53.90;;;;;;5073712;28;20441;-89
2024/01/24 17:31:54;;;;;;;5.43;1.93;;;23.90;53.80;;;;;;5072614;28;20440;-89
2024/01/24 17:34:21;;;;;;;6.77;2.30;;;23.90;53.90;;;;;;5073303;28;20869;-88
2024/01/24 17:36:47;;;;;;;6.03;2.13;;;23.90;53.90;;;;;;5072564;28;20436;-89
2024/01/24 17:39:15;;;;;;;7.37;2.10;;;23.90;53.90;;;;;;5073631;28;20451;-88
2024/01/24 17:41:41;;;;;;;6.00;1.97;;;23.90;53.90;;;;;;5073600;28;20536;-88
2024/01/24 17:44:09;;;;;;;5.77;2.40;;;23.90;53.90;;;;;;5073355;28;20457;-88
2024/01/24 17:46:38;;;;;;;6.60;2.60;;;23.90;53.90;;;;;;5073309;28;20451;-88
2024/01/24 17:49:06;;;;;;;5.20;2.00;;;23.90;53.90;;;;;;5073366;28;20491;-89
2024/01/24 17:51:33;;;;;;;4.10;2.17;;;23.90;53.90;;;;;;5073552;28;20433;-88
2024/01/24 17:54:00;;;;;;;4.23;2.03;;;23.90;53.90;;;;;;5071898;28;20440;-88
2024/01/24 17:56:26;;;;;;;4.47;2.00;;;23.90;53.90;;;;;;5071008;28;20506;-88
2024/01/24 17:58:53;;;;;;;5.60;2.30;;;23.90;53.90;;;;;;5071355;28;20448;-88
2024/01/24 18:01:20;;;;;;;4.40;2.20;;;23.90;54.00;;;;;;5071406;28;20436;-89
2024/01/24 18:03:47;;;;;;;3.57;1.90;;;23.90;54.00;;;;;;5071332;28;20447;-88
2024/01/24 18:06:15;;;;;;;7.23;3.00;;;23.90;54.00;;;;;;5071171;28;20511;-88
2024/01/24 18:08:42;;;;;;;4.93;2.07;;;23.90;54.00;;;;;;5072032;28;20472;-88
2024/01/24 18:11:09;;;;;;;7.17;2.30;;;23.90;54.00;;;;;;5073478;28;20440;-88
2024/01/24 18:13:36;;;;;;;3.50;1.83;;;23.90;54.00;;;;;;5073672;28;20440;-88
2024/01/24 18:16:03;;;;;;;4.00;1.53;;;23.90;54.00;;;;;;5073499;28;20563;-88
2024/01/24 18:18:30;;;;;;;4.50;2.40;;;23.90;54.00;;;;;;5073458;28;20437;-89
2024/01/24 18:20:57;;;;;;;6.67;2.10;;;23.90;53.90;;;;;;5073881;28;20455;-88
2024/01/24 18:23:25;;;;;;;8.40;1.80;;;23.90;53.50;;;;;;5074947;28;20476;-88
2024/01/24 18:25:51;;;;;;;8.13;2.40;;;23.90;54.00;;;;;;5073697;28;20460;-88
2024/01/24 18:28:18;;;;;;;4.63;2.20;;;23.90;54.00;;;;;;5073513;28;20444;-89
2024/01/24 18:30:45;;;;;;;6.47;2.33;;;23.80;53.90;;;;;;5073231;28;20529;-89
2024/01/24 18:33:14;;;;;;;9.47;2.27;;;23.80;54.00;;;;;;5073420;28;20519;-89
2024/01/24 18:35:41;;;;;;;8.30;2.20;;;23.80;53.90;;;;;;5073329;28;20514;-89
2024/01/24 18:38:08;;;;;;;4.80;2.17;;;23.80;54.00;;;;;;5073311;28;20923;-89
2024/01/24 18:40:36;;;;;;;3.00;1.93;;;23.80;53.90;;;;;;5073559;28;20441;-89
2024/01/24 18:43:03;;;;;;;5.67;2.43;;;23.80;53.90;;;;;;5073051;28;20435;-88
2024/01/24 18:45:30;;;;;;;7.50;1.83;;;23.80;54.50;;;;;;5073008;28;20440;-89
2024/01/24 18:47:57;;;;;;;4.13;2.50;;;23.90;53.90;;;;;;5073538;28;20439;-89
2024/01/24 18:50:26;;;;;;;6.03;2.10;;;23.90;53.90;;;;;;5073602;28;20539;-89
2024/01/24 18:52:52;;;;;;;7.90;2.40;;;23.90;53.90;;;;;;5073717;28;20455;-89
2024/01/24 18:55:19;;;;;;;3.20;1.60;;;23.90;53.90;;;;;;5072783;28;20488;-89
2024/01/24 18:57:47;;;;;;;7.10;2.00;;;23.90;53.90;;;;;;5072836;28;20436;-89
2024/01/24 19:00:15;;;;;;;7.40;2.50;;;23.90;53.80;;;;;;5072715;28;20447;-89
2024/01/24 19:02:42;;;;;;;7.33;2.90;;;23.80;53.80;;;;;;5072681;28;20439;-89
2024/01/24 19:05:09;;;;;;;11.73;3.10;;;23.90;53.80;;;;;;5072623;28;20432;-89
2024/01/24 19:07:36;;;;;;;6.43;2.70;;;23.90;53.80;;;;;;5072516;28;20523;-90
2024/01/24 19:10:03;;;;;;;6.90;1.80;;;23.90;53.80;;;;;;5072590;28;20436;-88
2024/01/24 19:12:30;;;;;;;6.20;2.20;;;23.90;53.70;;;;;;5072376;28;20443;-88
2024/01/24 19:14:59;;;;;;;11.70;3.10;;;23.90;53.70;;;;;;5072400;28;20480;-89
2024/01/24 19:17:25;;;;;;;9.03;2.43;;;23.90;53.70;;;;;;5071506;28;20531;-89
2024/01/24 19:19:52;;;;;;;10.93;2.77;;;23.90;53.70;;;;;;5072853;28;20455;-89
2024/01/24 19:22:19;;;;;;;10.17;2.97;;;23.90;53.80;;;;;;5074238;28;20482;-89
2024/01/24 19:24:46;;;;;;;12.93;2.83;;;23.90;53.80;;;;;;5074471;28;20454;-84
2024/01/24 19:27:12;;;;;;;8.10;2.17;;;23.90;53.70;;;;;;5088890;28;20444;-88
2024/01/24 19:29:39;;;;;;;13.87;2.67;;;23.90;53.50;;;;;;5100748;28;20452;-90
2024/01/24 19:32:08;;;;;;;13.63;2.83;;;23.90;53.60;;;;;;5066144;28;20536;-90
2024/01/24 19:34:36;;;;;;;11.00;2.47;;;23.80;53.70;;;;;;5057785;28;20437;-91
2024/01/24 19:37:02;;;;;;;9.33;2.60;;;23.90;53.80;;;;;;5057787;28;20488;-91
2024/01/24 19:39:29;;;;;;;16.90;3.57;;;23.80;54.00;;;;;;5058541;28;20939;-92
2024/01/24 19:41:56;;;;;;;13.83;3.83;;;23.80;54.30;;;;;;5040605;28;20445;-91
2024/01/24 19:44:23;;;;;;;11.07;4.07;;;23.80;55.00;;;;;;5057148;28;20453;-90
2024/01/24 19:46:51;;;;;;;13.43;3.80;;;23.80;54.40;;;;;;5057204;28;20539;-92
2024/01/24 19:49:19;;;;;;;7.17;3.27;;;23.90;54.50;;;;;;5057315;28;20536;-91
2024/01/24 19:51:48;;;;;;;7.37;3.60;;;23.90;54.60;;;;;;5057032;28;20437;-92
2024/01/24 19:54:15;;;;;;;18.60;3.90;;;23.80;54.70;;;;;;5056841;28;20453;-92
2024/01/24 19:56:42;;;;;;;8.97;4.07;;;23.90;54.80;;;;;;5056230;28;20477;-91
2024/01/24 19:59:08;;;;;;;9.40;4.33;;;23.90;54.90;;;;;;5056485;28;20445;-90
2024/01/24 20:01:35;;;;;;;14.23;4.13;;;24.00;55.00;;;;;;5055955;28;20469;-91
2024/01/24 20:04:02;;;;;;;9.87;4.23;;;23.80;55.00;;;;;;5056654;28;20442;-93
2024/01/24 20:06:31;;;;;;;11.93;4.53;;;23.90;55.10;;;;;;5056984;28;20446;-92
2024/01/24 20:08:58;;;;;;;9.50;4.43;;;23.90;55.10;;;;;;5056350;28;20480;-92
2024/01/24 20:11:25;;;;;;;11.43;3.70;;;24.00;55.30;;;;;;5056444;28;20451;-93
2024/01/24 20:13:52;;;;;;;9.80;4.40;;;23.90;55.30;;;;;;5055691;28;20985;-92
2024/01/24 20:16:19;;;;;;;14.47;4.13;;;24.00;55.40;;;;;;5062662;28;20476;-91
2024/01/24 20:18:46;;;;;;;11.60;5.03;;;23.90;55.40;;;;;;5076402;28;20447;-92
2024/01/24 20:21:12;;;;;;;13.90;4.67;;;23.90;55.40;;;;;;5076690;28;20956;-91
2024/01/24 20:23:41;;;;;;;14.07;4.77;;;23.90;55.50;;;;;;5075710;28;20474;-90
2024/01/24 20:26:09;;;;;;;12.77;4.70;;;24.00;55.50;;;;;;5075652;28;20464;-90
2024/01/24 20:28:36;;;;;;;13.97;5.00;;;24.00;55.50;;;;;;5077164;28;20468;-90
2024/01/24 20:31:03;;;;;;;10.17;5.03;;;23.90;55.40;;;;;;5099130;28;20464;-90
2024/01/24 20:33:36;;;;;;;28.20;5.47;;;23.90;55.50;;;;;;5099935;28;20492;-89
2024/01/24 20:36:03;;;;;;;10.03;5.10;;;24.00;55.60;;;;;;5097032;28;20479;-89
2024/01/24 20:38:30;;;;;;;10.53;4.83;;;24.00;55.60;;;;;;5075850;28;20436;-91
2024/01/24 20:40:58;;;;;;;11.03;4.50;;;24.00;55.60;;;;;;5075612;28;20774;-90
2024/01/24 20:43:25;;;;;;;7.57;4.17;;;23.90;55.60;;;;;;5076065;28;20448;-88
2024/01/24 20:45:52;;;;;;;9.33;5.43;;;24.00;55.70;;;;;;5075624;28;20864;-88
2024/01/24 20:48:19;;;;;;;8.13;5.03;;;24.00;55.70;;;;;;5075946;28;20447;-92
2024/01/24 20:50:46;;;;;;;11.47;5.37;;;24.00;55.70;;;;;;5075997;28;20524;-89
2024/01/24 20:53:16;;;;;;;8.63;5.07;;;24.00;56.40;;;;;;5075771;28;20452;-89
2024/01/24 20:55:43;;;;;;;10.10;6.00;;;24.00;55.80;;;;;;5076289;28;20480;-91
2024/01/24 20:58:11;;;;;;;11.33;4.87;;;24.00;55.90;;;;;;5075368;28;20451;-91
2024/01/24 21:00:38;;;;;;;7.13;4.73;;;24.00;55.80;;;;;;5075114;28;20980;-86
2024/01/24 21:03:06;;;;;;;10.50;4.80;;;24.00;55.90;;;;;;5074745;28;20436;-89
2024/01/24 21:05:33;;;;;;;9.30;5.07;;;23.90;56.00;;;;;;5075625;28;20441;-92
2024/01/24 21:08:00;;;;;;;13.70;7.00;;;24.00;55.70;;;;;;5076196;28;20441;-92
2024/01/24 21:10:26;;;;;;;11.67;5.87;;;24.00;55.80;;;;;;5076511;28;20444;-91
2024/01/24 21:12:54;;;;;;;11.67;6.53;;;23.90;55.90;;;;;;5075155;28;20447;-91
2024/01/24 21:15:22;;;;;;;13.33;5.63;;;23.90;55.90;;;;;;5075400;28;20475;-91
2024/01/24 21:17:51;;;;;;;9.80;6.40;;;24.00;55.80;;;;;;5078217;28;20455;-89
2024/01/24 21:20:19;;;;;;;14.80;7.03;;;24.00;55.80;;;;;;5080584;28;20451;-93
2024/01/24 21:22:48;;;;;;;8.90;5.83;;;24.00;55.80;;;;;;5080239;28;20482;-92
2024/01/24 21:25:15;;;;;;;10.07;6.17;;;24.00;55.80;;;;;;5081228;28;20983;-93
2024/01/24 21:27:42;;;;;;;10.40;6.40;;;24.00;55.80;;;;;;5079159;28;20471;-92
2024/01/24 21:30:11;;;;;;;13.73;6.27;;;24.00;55.80;;;;;;5081895;28;20907;-90
2024/01/24 21:32:40;;;;;;;13.70;6.50;;;24.00;55.70;;;;;;5080238;28;20535;-93
2024/01/24 21:35:09;;;;;;;10.70;7.10;;;24.00;55.70;;;;;;5079619;28;20432;-92
2024/01/24 21:37:36;;;;;;;8.63;5.90;;;24.00;55.70;;;;;;5061066;28;20484;-90
2024/01/24 21:40:04;;;;;;;10.43;6.30;;;24.00;55.70;;;;;;5078787;28;20444;-92
2024/01/24 21:42:32;;;;;;;16.43;7.37;;;24.00;55.70;;;;;;5078879;28;20459;-92
2024/01/24 21:45:06;;;;;;;8.47;4.53;;;24.00;55.70;;;;;;5077021;28;20484;-86
2024/01/24 21:47:33;;;;;;;11.70;4.87;;;24.00;54.90;;;;;;5076419;28;20828;-91
2024/01/24 21:50:02;;;;;;;11.80;5.13;;;24.10;55.10;;;;;;5077955;28;20792;-91
2024/01/24 21:52:32;;;;;;;10.10;4.93;;;24.10;55.40;;;;;;5076991;28;21010;-93
2024/01/24 21:55:01;;;;;;;8.67;5.03;;;24.10;55.50;;;;;;5079028;28;20460;-92
2024/01/24 21:57:30;;;;;;;8.80;5.20;;;24.10;55.40;;;;;;5077471;28;20487;-92
2024/01/24 21:59:58;;;;;;;9.10;5.47;;;24.00;55.30;;;;;;5078438;28;20856;-91
2024/01/24 22:02:25;;;;;;;20.57;5.40;;;24.10;55.40;;;;;;5076709;28;20911;-90
2024/01/24 22:04:52;;;;;;;10.33;5.17;;;24.10;55.40;;;;;;5077199;28;20440;-91
2024/01/24 22:07:21;;;;;;;6.90;4.60;;;24.10;55.40;;;;;;5078145;28;20856;-91
2024/01/24 22:09:51;;;;;;;7.97;4.77;;;24.10;55.30;;;;;;5077383;28;20433;-91
2024/01/24 22:12:18;;;;;;;7.80;4.70;;;24.10;55.30;;;;;;5075349;28;20487;-91
2024/01/24 22:14:44;;;;;;;6.40;4.00;;;24.10;55.30;;;;;;5074789;28;20543;-90
2024/01/24 22:17:13;;;;;;;10.80;4.20;;;24.10;55.30;;;;;;5073609;28;20486;-82
2024/01/24 22:19:39;;;;;;;8.40;4.87;;;24.10;55.40;;;;;;5071726;28;20465;-87
2024/01/24 22:22:06;;;;;;;9.33;4.27;;;24.10;55.20;;;;;;5070747;28;20476;-87
2024/01/24 22:24:34;;;;;;;7.00;4.00;;;24.10;55.20;;;;;;5073756;28;20445;-88
2024/01/24 22:27:01;;;;;;;9.60;4.20;;;24.10;55.20;;;;;;5073454;28;20468;-87
2024/01/24 22:29:28;;;;;;;9.87;4.20;;;24.10;55.20;;;;;;5073247;28;20974;-87
2024/01/24 22:31:55;;;;;;;7.93;4.30;;;24.00;55.00;;;;;;5073784;28;20443;-87
2024/01/24 22:34:22;;;;;;;5.73;3.50;;;24.00;55.10;;;;;;5073713;28;20444;-87
2024/01/24 22:36:48;;;;;;;8.50;4.80;;;24.00;55.10;;;;;;5073515;28;20496;-87
2024/01/24 22:39:15;;;;;;;7.13;3.50;;;24.00;55.00;;;;;;5073929;28;20437;-87
2024/01/24 22:41:43;;;;;;;10.87;4.40;;;24.00;55.00;;;;;;5093874;28;20412;-88
2024/01/24 22:44:10;;;;;;;7.40;4.20;;;24.00;55.00;;;;;;5097861;28;20496;-90
2024/01/24 22:46:39;;;;;;;6.80;4.00;;;24.00;55.00;;;;;;5081300;28;21006;-87
2024/01/24 22:49:06;;;;;;;7.93;3.83;;;24.00;55.00;;;;;;5073441;28;20437;-87
2024/01/24 22:51:34;;;;;;;7.70;4.47;;;24.00;55.00;;;;;;5073513;28;20535;-87
2024/01/24 22:54:01;;;;;;;7.00;3.73;;;24.00;55.00;;;;;;5074239;28;20458;-87
2024/01/24 22:56:28;;;;;;;5.90;4.20;;;23.90;54.90;;;;;;5077092;28;20840;-87
2024/01/24 22:58:56;;;;;;;7.93;4.37;;;23.90;54.90;;;;;;5077219;28;20440;-87
2024/01/24 23:01:23;;;;;;;6.87;3.37;;;23.90;54.90;;;;;;5076787;28;20446;-87
2024/01/24 23:03:50;;;;;;;7.03;3.97;;;23.90;54.90;;;;;;5077172;28;20547;-87
2024/01/24 23:06:17;;;;;;;7.00;4.07;;;23.90;54.80;;;;;;5076353;28;20973;-87
2024/01/24 23:08:44;;;;;;;7.13;3.60;;;23.90;54.80;;;;;;5076872;28;20803;-88
2024/01/24 23:11:11;;;;;;;7.37;3.87;;;23.90;54.90;;;;;;5076620;28;20460;-87
2024/01/24 23:13:38;;;;;;;7.13;3.13;;;23.80;54.80;;;;;;5076855;28;20440;-87
2024/01/24 23:16:07;;;;;;;6.60;3.37;;;23.80;54.80;;;;;;5069433;28;20935;-88
2024/01/24 23:18:34;;;;;;;6.43;4.10;;;23.80;54.80;;;;;;5076624;28;20449;-87
2024/01/24 23:21:01;;;;;;;5.43;3.50;;;23.90;55.40;;;;;;5075938;28;20967;-87
2024/01/24 23:23:27;;;;;;;6.97;3.40;;;23.80;54.80;;;;;;5075433;28;20480;-87
2024/01/24 23:25:54;;;;;;;5.17;3.20;;;23.80;54.80;;;;;;5076226;28;20462;-87
2024/01/24 23:28:21;;;;;;;8.80;3.20;;;23.80;54.80;;;;;;5076309;28;20804;-87
2024/01/24 23:30:48;;;;;;;7.17;3.87;;;23.80;54.80;;;;;;5076549;28;20941;-87
2024/01/24 23:33:16;;;;;;;5.77;3.40;;;23.70;54.80;;;;;;5076496;28;20535;-87
2024/01/24 23:35:43;;;;;;;9.17;3.50;;;23.70;54.70;;;;;;5076448;28;20447;-86
2024/01/24 23:38:10;;;;;;;6.50;3.50;;;23.70;54.70;;;;;;5076416;28;20496;-87